createdAt,value
2023-02-24T00:00:48.175Z,5.20
2023-02-24T00:03:16.419Z,5.20
2023-02-24T00:05:45.162Z,5.20
2023-02-24T00:08:11.988Z,5.20
2023-02-24T00:10:38.882Z,5.30
2023-02-24T00:13:05.815Z,5.20
2023-02-24T00:15:33.066Z,5.20
2023-02-24T00:18:05.568Z,5.20
2023-02-24T00:20:34.781Z,5.10
2023-02-24T00:23:01.590Z,5.10
2023-02-24T00:25:28.711Z,5.10
2023-02-24T00:28:01.581Z,5.20
2023-02-24T00:30:30.232Z,5.00
2023-02-24T00:33:01.170Z,5.00
2023-02-24T00:35:29.823Z,5.10
2023-02-24T00:37:57.998Z,5.00
2023-02-24T00:40:25.013Z,5.00
2023-02-24T00:42:51.825Z,4.90
2023-02-24T00:45:18.964Z,5.00
2023-02-24T00:47:45.763Z,4.90
2023-02-24T00:50:14.413Z,4.90
2023-02-24T00:52:41.360Z,4.80
2023-02-24T00:55:15.036Z,4.70
2023-02-24T00:57:41.902Z,4.70
2023-02-24T01:00:15.320Z,4.60
2023-02-24T01:02:44.618Z,4.50
2023-02-24T01:05:12.370Z,4.50
2023-02-24T01:07:39.314Z,4.60
2023-02-24T01:10:08.750Z,4.60
2023-02-24T01:12:49.425Z,4.60
2023-02-24T01:15:17.983Z,4.50
2023-02-24T01:17:44.985Z,4.50
2023-02-24T01:20:20.135Z,4.40
2023-02-24T01:22:49.182Z,4.50
2023-02-24T01:25:16.593Z,4.40
2023-02-24T01:27:45.045Z,4.50
2023-02-24T01:30:16.564Z,4.40
2023-02-24T01:32:44.634Z,4.40
2023-02-24T01:35:12.407Z,4.40
2023-02-24T01:37:39.659Z,4.40
2023-02-24T01:40:20.871Z,4.40
2023-02-24T01:42:49.781Z,4.40
2023-02-24T01:45:25.298Z,4.40
2023-02-24T01:47:52.871Z,4.50
2023-02-24T01:50:22.414Z,4.50
2023-02-24T01:52:51.462Z,4.40
2023-02-24T01:55:22.795Z,4.40
2023-02-24T01:57:53.466Z,4.40
2023-02-24T02:00:45.489Z,4.50
2023-02-24T02:03:19.489Z,4.40
2023-02-24T02:05:49.809Z,4.50
2023-02-24T02:08:19.379Z,4.40
2023-02-24T02:10:46.862Z,4.40
2023-02-24T02:13:21.751Z,4.50
2023-02-24T02:16:02.950Z,4.50
2023-02-24T02:18:42.964Z,4.50
2023-02-24T02:21:46.043Z,4.50
2023-02-24T02:24:41.092Z,4.50
2023-02-24T02:27:45.729Z,4.50
2023-02-24T02:30:48.421Z,4.50
2023-02-24T02:33:47.914Z,4.50
2023-02-24T02:36:25.158Z,4.50
2023-02-24T02:38:57.581Z,4.60
2023-02-24T02:41:29.087Z,4.60
2023-02-24T02:44:04.869Z,4.50
2023-02-24T02:46:38.627Z,4.50
2023-02-24T02:49:14.646Z,4.50
2023-02-24T02:51:47.060Z,4.50
2023-02-24T02:54:19.917Z,4.50
2023-02-24T02:56:53.249Z,4.50
2023-02-24T02:59:24.986Z,4.50
2023-02-24T03:01:55.960Z,4.50
2023-02-24T03:04:25.190Z,4.50
2023-02-24T03:06:57.218Z,4.50
2023-02-24T03:09:29.408Z,4.50
2023-02-24T03:12:00.131Z,4.50
2023-02-24T03:14:37.605Z,4.50
2023-02-24T03:17:07.146Z,4.50
2023-02-24T03:19:37.625Z,4.50
2023-02-24T03:22:14.106Z,4.40
2023-02-24T03:24:42.279Z,4.40
2023-02-24T03:27:13.740Z,4.40
2023-02-24T03:29:48.436Z,4.50
2023-02-24T03:32:20.578Z,4.50
2023-02-24T03:34:55.162Z,4.40
2023-02-24T03:37:27.210Z,4.40
2023-02-24T03:39:57.224Z,4.40
2023-02-24T03:42:28.892Z,4.40
2023-02-24T03:44:58.200Z,4.50
2023-02-24T03:47:26.479Z,4.40
2023-02-24T03:49:53.354Z,4.30
2023-02-24T03:52:32.906Z,4.30
2023-02-24T03:55:16.474Z,4.30
2023-02-24T03:57:56.395Z,4.40
2023-02-24T04:00:34.160Z,4.30
2023-02-24T04:03:11.514Z,4.30
2023-02-24T04:05:47.528Z,4.30
2023-02-24T04:08:17.968Z,4.30
2023-02-24T04:10:53.919Z,4.40
2023-02-24T04:13:28.800Z,4.30
2023-02-24T04:16:01.599Z,4.30
2023-02-24T04:18:31.732Z,4.30
2023-02-24T04:21:02.392Z,4.30
2023-02-24T04:23:34.317Z,4.30
2023-02-24T04:26:02.459Z,4.30
2023-02-24T04:28:31.371Z,4.30
2023-02-24T04:31:05.778Z,4.30
2023-02-24T04:33:33.312Z,4.30
2023-02-24T04:36:00.383Z,4.30
2023-02-24T04:38:27.760Z,4.30
2023-02-24T04:40:57.344Z,4.30
2023-02-24T04:43:24.623Z,4.30
2023-02-24T04:45:56.203Z,4.30
2023-02-24T04:48:23.377Z,4.30
2023-02-24T04:50:55.039Z,4.20
2023-02-24T04:53:28.385Z,4.20
2023-02-24T04:55:56.610Z,4.20
2023-02-24T04:58:28.852Z,4.10
2023-02-24T05:00:56.036Z,4.10
2023-02-24T05:03:28.636Z,4.00
2023-02-24T05:05:58.146Z,4.10
2023-02-24T05:08:27.406Z,4.00
2023-02-24T05:11:05.713Z,4.10
2023-02-24T05:13:33.827Z,4.10
2023-02-24T05:16:06.369Z,4.10
2023-02-24T05:18:37.469Z,4.00
2023-02-24T05:21:25.260Z,4.00
2023-02-24T05:23:53.908Z,4.10
2023-02-24T05:26:25.530Z,4.10
2023-02-24T05:28:54.725Z,4.10
2023-02-24T05:31:24.095Z,4.10
2023-02-24T05:33:57.925Z,4.10
2023-02-24T05:36:26.577Z,4.00
2023-02-24T05:38:58.209Z,4.00
2023-02-24T05:41:35.642Z,4.00
2023-02-24T05:44:08.785Z,4.00
2023-02-24T05:46:38.338Z,4.00
2023-02-24T05:49:10.413Z,3.90
2023-02-24T05:51:39.205Z,4.00
2023-02-24T05:54:08.815Z,4.00
2023-02-24T05:56:39.495Z,3.90
2023-02-24T05:59:09.021Z,3.90
2023-02-24T06:01:45.560Z,3.90
2023-02-24T06:04:21.224Z,3.90
2023-02-24T06:06:52.579Z,3.90
2023-02-24T06:09:23.506Z,3.90
2023-02-24T06:11:51.796Z,3.90
2023-02-24T06:14:19.110Z,3.90
2023-02-24T06:16:45.975Z,3.90
2023-02-24T06:19:13.956Z,3.90
2023-02-24T06:21:42.028Z,3.90
2023-02-24T06:24:14.815Z,3.90
2023-02-24T06:26:43.343Z,3.90
2023-02-24T06:29:16.705Z,3.90
2023-02-24T06:31:44.470Z,3.90
2023-02-24T06:34:14.348Z,3.90
2023-02-24T06:36:43.059Z,3.90
2023-02-24T06:39:13.812Z,3.80
2023-02-24T06:41:41.847Z,3.90
2023-02-24T06:44:09.970Z,3.90
2023-02-24T06:46:38.086Z,3.90
2023-02-24T06:49:05.076Z,4.20
2023-02-24T06:51:32.026Z,4.50
2023-02-24T06:53:59.867Z,4.80
2023-02-24T06:56:27.738Z,4.80
2023-02-24T06:58:57.261Z,4.90
2023-02-24T07:01:25.796Z,4.90
2023-02-24T07:04:03.312Z,4.50
2023-02-24T07:06:32.013Z,4.30
2023-02-24T07:09:00.650Z,4.10
2023-02-24T07:11:29.236Z,4.10
2023-02-24T07:13:57.553Z,3.90
2023-02-24T07:16:25.580Z,3.90
2023-02-24T07:18:56.789Z,3.90
2023-02-24T07:21:25.345Z,3.90
2023-02-24T07:23:59.108Z,3.90
2023-02-24T07:26:27.679Z,3.90
2023-02-24T07:28:55.167Z,3.90
2023-02-24T07:31:24.341Z,3.90
2023-02-24T07:33:57.489Z,4.00
2023-02-24T07:36:27.012Z,4.00
2023-02-24T07:38:55.133Z,4.00
2023-02-24T07:41:23.394Z,4.00
2023-02-24T07:43:51.907Z,4.00
2023-02-24T07:46:21.624Z,4.00
2023-02-24T07:48:48.502Z,4.00
2023-02-24T07:51:20.361Z,4.00
2023-02-24T07:53:52.011Z,3.90
2023-02-24T07:56:27.203Z,4.00
2023-02-24T07:58:59.226Z,4.00
2023-02-24T08:01:28.273Z,4.10
2023-02-24T08:03:57.093Z,4.00
2023-02-24T08:06:37.901Z,4.00
2023-02-24T08:09:19.702Z,4.00
2023-02-24T08:11:52.104Z,4.00
2023-02-24T08:14:21.174Z,4.00
2023-02-24T08:16:51.607Z,4.00
2023-02-24T08:19:21.033Z,4.00
2023-02-24T08:21:52.153Z,4.00
2023-02-24T08:24:20.796Z,4.00
2023-02-24T08:27:03.766Z,4.00
2023-02-24T08:29:31.891Z,4.00
2023-02-24T08:31:59.218Z,4.00
2023-02-24T08:34:31.666Z,4.00
2023-02-24T08:37:02.086Z,4.00
2023-02-24T08:39:30.217Z,4.00
2023-02-24T08:41:57.694Z,4.00
2023-02-24T08:44:27.037Z,4.00
2023-02-24T08:46:54.817Z,4.00
2023-02-24T08:49:25.209Z,4.00
2023-02-24T08:51:53.097Z,4.00
2023-02-24T08:54:27.303Z,4.10
2023-02-24T08:56:56.072Z,4.10
2023-02-24T08:59:38.630Z,4.10
2023-02-24T09:02:20.863Z,4.10
2023-02-24T09:04:49.724Z,4.10
2023-02-24T09:07:18.301Z,4.10
2023-02-24T09:09:46.849Z,4.10
2023-02-24T09:12:22.383Z,4.10
2023-02-24T09:14:50.805Z,4.10
2023-02-24T09:17:20.644Z,4.10
2023-02-24T09:19:50.104Z,4.10
2023-02-24T09:22:31.202Z,4.10
2023-02-24T09:25:36.916Z,4.10
2023-02-24T09:28:07.999Z,4.00
2023-02-24T09:30:37.313Z,4.10
2023-02-24T09:33:17.589Z,4.10
2023-02-24T09:35:51.226Z,4.00
2023-02-24T09:38:20.755Z,3.90
2023-02-24T09:40:49.922Z,3.80
2023-02-24T09:43:20.416Z,3.70
2023-02-24T09:45:58.364Z,3.50
2023-02-24T09:48:43.528Z,3.40
2023-02-24T09:51:21.630Z,3.30
2023-02-24T09:53:56.596Z,3.30
2023-02-24T09:56:31.407Z,3.30
2023-02-24T09:59:10.395Z,3.30
2023-02-24T10:01:53.113Z,3.30
2023-02-24T10:04:37.097Z,3.30
2023-02-24T10:07:07.836Z,3.30
2023-02-24T10:09:38.053Z,3.30
2023-02-24T10:12:20.409Z,3.20
2023-02-24T10:14:53.011Z,3.10
2023-02-24T10:17:25.287Z,3.00
2023-02-24T10:19:59.955Z,3.00
2023-02-24T10:22:40.862Z,2.90
2023-02-24T10:25:24.636Z,2.90
2023-02-24T10:28:01.732Z,2.90
2023-02-24T10:30:43.031Z,2.90
2023-02-24T10:33:20.693Z,2.90
2023-02-24T10:35:48.037Z,2.80
2023-02-24T10:38:15.650Z,2.90
2023-02-24T10:40:47.425Z,2.90
2023-02-24T10:43:25.244Z,2.80
2023-02-24T10:46:06.009Z,2.90
2023-02-24T10:48:41.762Z,2.80
2023-02-24T10:51:19.800Z,2.90
2023-02-24T10:54:08.508Z,3.00
2023-02-24T10:56:46.752Z,3.10
2023-02-24T10:59:24.200Z,2.90
2023-02-24T11:01:58.980Z,2.80
2023-02-24T11:04:33.829Z,2.80
2023-02-24T11:07:24.266Z,2.70
2023-02-24T11:10:11.183Z,2.70
2023-02-24T11:13:09.362Z,2.70
2023-02-24T11:16:01.882Z,2.70
2023-02-24T11:18:31.292Z,2.70
2023-02-24T11:21:01.411Z,2.80
2023-02-24T11:23:33.270Z,2.80
2023-02-24T11:26:04.541Z,2.80
2023-02-24T11:28:47.974Z,2.80
2023-02-24T11:31:30.588Z,2.90
2023-02-24T11:34:07.514Z,3.00
2023-02-24T11:36:41.372Z,3.00
2023-02-24T11:39:26.396Z,3.00
2023-02-24T11:41:56.635Z,3.00
2023-02-24T11:44:30.281Z,3.00
2023-02-24T11:47:03.882Z,3.00
2023-02-24T11:49:36.305Z,3.00
2023-02-24T11:52:06.114Z,3.00
2023-02-24T11:54:38.451Z,3.00
2023-02-24T11:57:11.818Z,3.00
2023-02-24T11:59:45.268Z,3.00
2023-02-24T12:02:19.616Z,2.90
2023-02-24T12:04:56.252Z,2.80
2023-02-24T12:07:28.443Z,2.80
2023-02-24T12:10:17.660Z,2.80
2023-02-24T12:12:51.303Z,2.80
2023-02-24T12:15:24.879Z,2.80
2023-02-24T12:18:04.258Z,2.80
2023-02-24T12:20:38.633Z,2.80
2023-02-24T12:23:18.086Z,2.70
2023-02-24T12:26:09.001Z,2.80
2023-02-24T12:28:57.503Z,2.80
2023-02-24T12:31:34.921Z,2.80
2023-02-24T12:34:12.223Z,2.80
2023-02-24T12:36:54.809Z,2.70
2023-02-24T12:39:30.161Z,2.90
2023-02-24T12:42:05.736Z,3.10
2023-02-24T12:44:41.821Z,3.40
2023-02-24T12:47:11.717Z,3.50
2023-02-24T12:50:17.953Z,3.60
2023-02-24T12:52:54.739Z,3.70
2023-02-24T12:55:30.324Z,3.70
2023-02-24T12:58:07.446Z,3.40
2023-02-24T13:00:50.290Z,3.10
2023-02-24T13:03:31.916Z,3.00
2023-02-24T13:06:10.836Z,2.90
2023-02-24T13:08:50.613Z,2.80
2023-02-24T13:11:28.354Z,2.80
2023-02-24T13:14:02.999Z,2.70
2023-02-24T13:16:32.181Z,2.70
2023-02-24T13:19:07.829Z,2.70
2023-02-24T13:21:36.062Z,2.70
2023-02-24T13:24:03.480Z,2.60
2023-02-24T13:26:32.384Z,2.70
2023-02-24T13:29:01.475Z,2.70
2023-02-24T13:31:40.005Z,2.60
2023-02-24T13:34:14.732Z,2.60
2023-02-24T13:36:49.173Z,2.50
2023-02-24T13:39:23.936Z,2.60
2023-02-24T13:42:04.390Z,2.50
2023-02-24T13:44:31.973Z,2.60
2023-02-24T13:47:31.765Z,2.50
2023-02-24T13:50:26.656Z,2.60
2023-02-24T13:53:23.761Z,2.50
2023-02-24T13:56:05.275Z,2.50
2023-02-24T13:58:46.342Z,2.50
2023-02-24T14:01:14.711Z,2.50
2023-02-24T14:03:45.975Z,2.50
2023-02-24T14:06:22.290Z,2.50
2023-02-24T14:08:54.392Z,2.50
2023-02-24T14:11:26.745Z,2.50
2023-02-24T14:13:55.557Z,2.50
2023-02-24T14:16:25.499Z,2.50
2023-02-24T14:18:54.540Z,2.60
2023-02-24T14:21:24.452Z,2.50
2023-02-24T14:24:00.854Z,2.60
2023-02-24T14:26:30.645Z,2.70
2023-02-24T14:29:00.693Z,2.80
2023-02-24T14:31:29.087Z,2.80
2023-02-24T14:33:59.541Z,2.90
2023-02-24T14:36:31.050Z,2.90
2023-02-24T14:39:10.026Z,3.00
2023-02-24T14:41:37.409Z,3.00
2023-02-24T14:44:19.912Z,3.10
2023-02-24T14:46:48.716Z,3.10
2023-02-24T14:49:19.975Z,3.10
2023-02-24T14:51:50.413Z,3.20
2023-02-24T14:54:32.938Z,3.20
2023-02-24T14:57:01.455Z,3.20
2023-02-24T14:59:31.603Z,3.30
2023-02-24T15:02:00.184Z,3.30
2023-02-24T15:04:33.950Z,3.30
2023-02-24T15:07:03.704Z,3.30
2023-02-24T15:09:36.353Z,3.40
2023-02-24T15:12:12.106Z,3.40
2023-02-24T15:14:39.745Z,3.40
2023-02-24T15:17:13.635Z,3.50
2023-02-24T15:19:47.135Z,3.50
2023-02-24T15:22:20.390Z,3.50
2023-02-24T15:24:49.531Z,3.50
2023-02-24T15:27:23.045Z,3.50
2023-02-24T15:30:00.123Z,3.60
2023-02-24T15:32:30.409Z,3.60
2023-02-24T15:34:57.559Z,3.60
2023-02-24T15:37:26.840Z,3.60
2023-02-24T15:40:05.033Z,3.50
2023-02-24T15:42:34.940Z,3.60
2023-02-24T15:45:03.521Z,3.60
2023-02-24T15:47:40.312Z,3.60
2023-02-24T15:50:08.214Z,3.60
2023-02-24T15:52:36.781Z,3.70
2023-02-24T15:55:06.208Z,3.70
2023-02-24T15:57:34.192Z,3.70
2023-02-24T16:00:01.000Z,3.70
2023-02-24T16:02:29.957Z,3.70
2023-02-24T16:04:56.859Z,3.70
2023-02-24T16:07:25.894Z,3.80
2023-02-24T16:09:54.747Z,3.70
2023-02-24T16:12:29.000Z,3.70
2023-02-24T16:15:05.850Z,3.80
2023-02-24T16:17:36.491Z,3.80
2023-02-24T16:20:09.003Z,3.80
2023-02-24T16:22:36.489Z,3.80
2023-02-24T16:25:04.280Z,3.80
2023-02-24T16:27:33.003Z,3.90
2023-02-24T16:30:00.295Z,3.90
2023-02-24T16:32:27.860Z,3.90
2023-02-24T16:34:55.351Z,3.90
2023-02-24T16:37:23.751Z,3.90
2023-02-24T16:39:50.884Z,3.90
2023-02-24T16:42:19.681Z,3.90
2023-02-24T16:44:50.030Z,3.90
2023-02-24T16:47:20.379Z,3.90
2023-02-24T16:49:47.314Z,3.90
2023-02-24T16:52:14.810Z,3.80
2023-02-24T16:54:42.497Z,3.80
2023-02-24T16:57:09.733Z,3.70
2023-02-24T16:59:36.524Z,3.70
2023-02-24T17:02:05.324Z,3.80
2023-02-24T17:04:32.347Z,3.70
2023-02-24T17:06:59.590Z,3.70
2023-02-24T17:09:29.428Z,3.70
2023-02-24T17:11:57.096Z,3.70
2023-02-24T17:14:24.575Z,3.80
2023-02-24T17:16:52.292Z,3.80
2023-02-24T17:19:20.568Z,3.80
2023-02-24T17:21:47.789Z,3.90
2023-02-24T17:24:16.822Z,3.90
2023-02-24T17:26:44.181Z,3.90
2023-02-24T17:29:12.831Z,3.90
2023-02-24T17:31:40.551Z,4.00
2023-02-24T17:34:07.527Z,4.00
2023-02-24T17:36:35.766Z,4.00
2023-02-24T17:39:02.599Z,4.10
2023-02-24T17:41:29.937Z,4.00
2023-02-24T17:43:56.814Z,4.10
2023-02-24T17:46:24.343Z,4.10
2023-02-24T17:48:51.372Z,4.10
2023-02-24T17:51:20.179Z,4.10
2023-02-24T17:53:48.593Z,4.10
2023-02-24T17:56:15.484Z,4.10
2023-02-24T17:58:42.264Z,4.10
2023-02-24T18:01:09.398Z,4.10
2023-02-24T18:03:36.626Z,4.10
2023-02-24T18:06:05.710Z,4.10
2023-02-24T18:08:33.667Z,4.10
2023-02-24T18:11:03.046Z,4.10
2023-02-24T18:13:31.123Z,4.10
2023-02-24T18:15:59.147Z,4.10
2023-02-24T18:18:27.241Z,4.10
2023-02-24T18:20:58.607Z,4.10
2023-02-24T18:23:25.535Z,4.10
2023-02-24T18:25:52.893Z,4.10
2023-02-24T18:28:21.114Z,4.00
2023-02-24T18:30:48.599Z,4.10
2023-02-24T18:33:15.678Z,4.10
2023-02-24T18:35:43.023Z,4.10
2023-02-24T18:38:10.217Z,4.10
2023-02-24T18:40:38.447Z,4.10
2023-02-24T18:43:05.607Z,4.10
2023-02-24T18:45:33.926Z,4.10
2023-02-24T18:48:05.209Z,4.10
2023-02-24T18:50:32.877Z,4.20
2023-02-24T18:52:59.686Z,4.20
2023-02-24T18:55:26.732Z,4.20
2023-02-24T18:57:53.901Z,4.20
2023-02-24T19:00:21.116Z,4.30
2023-02-24T19:02:49.394Z,4.20
2023-02-24T19:05:16.311Z,4.20
2023-02-24T19:07:44.325Z,4.20
2023-02-24T19:10:11.934Z,4.30
2023-02-24T19:12:39.151Z,4.20
2023-02-24T19:15:07.307Z,4.20
2023-02-24T19:17:34.314Z,4.20
2023-02-24T19:20:02.421Z,4.20
2023-02-24T19:22:29.265Z,4.20
2023-02-24T19:24:56.507Z,4.30
2023-02-24T19:27:23.864Z,4.30
2023-02-24T19:29:54.264Z,4.30
2023-02-24T19:32:23.319Z,4.30
2023-02-24T19:34:50.481Z,4.30
2023-02-24T19:37:19.261Z,4.40
2023-02-24T19:39:46.058Z,4.30
2023-02-24T19:42:12.915Z,4.30
2023-02-24T19:44:39.823Z,4.30
2023-02-24T19:47:06.633Z,4.40
2023-02-24T19:49:34.155Z,4.30
2023-02-24T19:52:01.399Z,4.30
2023-02-24T19:54:30.186Z,4.40
2023-02-24T19:56:58.117Z,4.40
2023-02-24T19:59:25.171Z,4.40
2023-02-24T20:01:54.233Z,4.40
2023-02-24T20:04:21.851Z,4.40
2023-02-24T20:06:49.204Z,4.40
2023-02-24T20:09:21.262Z,4.40
2023-02-24T20:11:51.495Z,4.40
2023-02-24T20:14:20.170Z,4.40
2023-02-24T20:16:47.489Z,4.40
2023-02-24T20:19:15.256Z,4.40
2023-02-24T20:21:42.661Z,4.40
2023-02-24T20:24:13.698Z,4.40
2023-02-24T20:26:42.894Z,4.50
2023-02-24T20:29:11.449Z,4.50
2023-02-24T20:31:39.201Z,4.50
2023-02-24T20:34:06.710Z,4.50
2023-02-24T20:36:34.007Z,4.50
2023-02-24T20:39:00.866Z,4.60
2023-02-24T20:41:28.886Z,4.60
2023-02-24T20:43:55.854Z,4.60
2023-02-24T20:46:26.109Z,4.50
2023-02-24T20:48:56.714Z,4.50
2023-02-24T20:51:24.149Z,4.50
2023-02-24T20:53:57.671Z,4.40
2023-02-24T20:57:35.037Z,4.50
2023-02-24T21:04:18.883Z,4.50
2023-02-24T21:07:04.954Z,4.50
2023-02-24T21:10:05.280Z,4.50
2023-02-24T21:12:54.588Z,4.50
2023-02-24T21:15:40.276Z,4.40
2023-02-24T21:18:22.421Z,4.40
2023-02-24T21:20:54.835Z,4.40
2023-02-24T21:23:26.043Z,4.40
2023-02-24T21:26:24.054Z,4.40
2023-02-24T21:29:31.639Z,4.30
2023-02-24T21:31:59.651Z,4.30
2023-02-24T21:34:46.174Z,4.30
2023-02-24T21:37:22.469Z,4.30
2023-02-24T21:39:54.933Z,4.30
2023-02-24T21:42:28.252Z,4.40
2023-02-24T21:45:02.784Z,4.40
2023-02-24T21:47:46.433Z,4.40
2023-02-24T21:50:36.927Z,4.40
2023-02-24T21:53:17.748Z,4.40
2023-02-24T21:56:11.821Z,4.40
2023-02-24T21:58:57.702Z,4.40
2023-02-24T22:01:43.764Z,4.40
2023-02-24T22:04:42.101Z,4.40
2023-02-24T22:07:28.872Z,4.40
2023-02-24T22:10:07.913Z,4.50
2023-02-24T22:13:13.166Z,4.40
2023-02-24T22:15:59.384Z,4.50
2023-02-24T22:18:35.890Z,4.50
2023-02-24T22:24:20.635Z,4.50
2023-02-24T22:27:48.429Z,4.50
2023-02-24T22:34:36.654Z,4.40
2023-02-24T22:36:57.793Z,4.40
2023-02-24T22:40:04.819Z,4.30
2023-02-24T22:46:46.411Z,4.30
2023-02-24T22:49:41.884Z,4.30
2023-02-24T22:52:19.671Z,4.30
2023-02-24T22:55:01.187Z,4.20
2023-02-24T22:57:45.056Z,4.20
2023-02-24T23:00:20.422Z,4.20
2023-02-24T23:03:07.263Z,4.20
2023-02-24T23:05:48.297Z,4.20
2023-02-24T23:08:31.339Z,4.20
2023-02-24T23:11:10.588Z,4.20
2023-02-24T23:13:55.915Z,4.20
2023-02-24T23:16:34.675Z,4.20
2023-02-24T23:19:21.236Z,4.20
2023-02-24T23:21:51.240Z,4.20
2023-02-24T23:24:23.097Z,4.30
2023-02-24T23:26:54.348Z,4.40
2023-02-24T23:32:54.962Z,4.30
2023-02-24T23:44:14.110Z,5.00
2023-02-24T23:46:43.615Z,5.10
2023-02-24T23:49:21.473Z,4.90
2023-02-24T23:52:03.184Z,4.50
2023-02-24T23:54:41.919Z,4.40
2023-02-24T23:57:14.595Z,4.30
2023-02-24T23:59:49.663Z,4.20
